NVVV

Port Vila Bauerfield Airport

Port Vila, Vanuatu
TAF NVVV 201000Z 2012/2112 VRB04KT 9999 FEW020 FM201200 VRB02KT SCT025
Issued Valid From Valid To
Jul-20 @ 10:00 UTC
(4 hours ago)
Jul-20 @ 12:00 UTC
(2 hours ago)
Jul-21 @ 12:00 UTC
(in 22 hours)
Jul-20 @ 12:00 to Jul-21 @ 12:00
TAF NVVV 201000Z 2012/2112 VRB04KT 9999 FEW020
Wind Visibility Clouds
Variable at 4 knots 10,000+ meters
  • Few at 2,000' AGL
From Jul-20 @ 12:00 to Jul-21 @ 12:00
FM201200 VRB02KT SCT025
Wind Clouds
Variable at 2 knots
  • Scattered at 2,500' AGL
TAF NVVV 201000Z 2012/2112 VRB04KT 9999 FEW020 FM201200 VRB02KT SCT025
Issued Jul-20 @ 10:00 UTC
(4 hours ago)
Valid From Jul-20 @ 12:00 UTC
(2 hours ago)
Valid To Jul-21 @ 12:00 UTC
(in 22 hours)
Jul-20 @ 12:00 - Jul-21 @ 12:00
Wind Visibility
Variable at 4 knots 10,000+ meters
Clouds
  • Few at 2,000' AGL
From Jul-20 @ 12:00 - Jul-21 @ 12:00
Wind
Variable at 2 knots
Clouds
  • Scattered at 2,500' AGL